sensor_id;sensor_type;location;lat;lon;timestamp;temperature;humidity
51765;DHT22;37835;53.256;6.456;2023-11-25T00:00:47;5.30;99.90
51765;DHT22;37835;53.256;6.456;2023-11-25T00:03:14;5.30;99.90
51765;DHT22;37835;53.256;6.456;2023-11-25T00:05:40;5.30;99.90
51765;DHT22;37835;53.256;6.456;2023-11-25T00:08:06;5.30;99.90
51765;DHT22;37835;53.256;6.456;2023-11-25T00:10:32;5.40;99.90
51765;DHT22;37835;53.256;6.456;2023-11-25T00:12:58;5.20;99.90
51765;DHT22;37835;53.256;6.456;2023-11-25T00:15:24;5.10;99.90
51765;DHT22;37835;53.256;6.456;2023-11-25T00:17:53;5.40;99.90
51765;DHT22;37835;53.256;6.456;2023-11-25T00:20:19;5.10;99.90
51765;DHT22;37835;53.256;6.456;2023-11-25T00:22:45;5.00;99.90
51765;DHT22;37835;53.256;6.456;2023-11-25T00:25:11;4.90;99.90
51765;DHT22;37835;53.256;6.456;2023-11-25T00:27:38;5.20;99.90
51765;DHT22;37835;53.256;6.456;2023-11-25T00:30:05;4.90;99.90
51765;DHT22;37835;53.256;6.456;2023-11-25T00:32:31;5.00;99.90
51765;DHT22;37835;53.256;6.456;2023-11-25T00:35:03;5.10;99.90
51765;DHT22;37835;53.256;6.456;2023-11-25T00:37:29;5.10;99.90
51765;DHT22;37835;53.256;6.456;2023-11-25T00:39:54;5.40;99.90
51765;DHT22;37835;53.256;6.456;2023-11-25T00:42:20;5.00;99.90
51765;DHT22;37835;53.256;6.456;2023-11-25T00:44:46;5.30;99.90
51765;DHT22;37835;53.256;6.456;2023-11-25T00:47:12;5.30;99.90
51765;DHT22;37835;53.256;6.456;2023-11-25T00:49:38;5.30;99.90
51765;DHT22;37835;53.256;6.456;2023-11-25T00:52:06;5.30;99.90
51765;DHT22;37835;53.256;6.456;2023-11-25T00:54:32;5.30;99.90
51765;DHT22;37835;53.256;6.456;2023-11-25T00:56:58;5.90;99.90
51765;DHT22;37835;53.256;6.456;2023-11-25T00:59:23;5.50;99.90
51765;DHT22;37835;53.256;6.456;2023-11-25T01:01:49;5.30;99.90
51765;DHT22;37835;53.256;6.456;2023-11-25T01:04:15;5.30;99.90
51765;DHT22;37835;53.256;6.456;2023-11-25T01:06:47;5.00;99.90
51765;DHT22;37835;53.256;6.456;2023-11-25T01:09:13;4.80;99.90
51765;DHT22;37835;53.256;6.456;2023-11-25T01:11:45;5.00;99.90
51765;DHT22;37835;53.256;6.456;2023-11-25T01:14:12;4.90;99.90
51765;DHT22;37835;53.256;6.456;2023-11-25T01:16:38;4.70;99.90
51765;DHT22;37835;53.256;6.456;2023-11-25T01:19:04;4.80;99.90
51765;DHT22;37835;53.256;6.456;2023-11-25T01:21:30;4.90;99.90
51765;DHT22;37835;53.256;6.456;2023-11-25T01:23:56;5.10;99.90
51765;DHT22;37835;53.256;6.456;2023-11-25T01:26:21;5.30;99.90
51765;DHT22;37835;53.256;6.456;2023-11-25T01:28:48;5.70;99.90
51765;DHT22;37835;53.256;6.456;2023-11-25T01:31:13;5.70;99.90
51765;DHT22;37835;53.256;6.456;2023-11-25T01:33:40;5.40;99.90
51765;DHT22;37835;53.256;6.456;2023-11-25T01:36:09;5.00;99.90
51765;DHT22;37835;53.256;6.456;2023-11-25T01:38:36;5.50;99.90
51765;DHT22;37835;53.256;6.456;2023-11-25T01:41:02;5.50;99.90
51765;DHT22;37835;53.256;6.456;2023-11-25T01:43:27;5.50;99.90
51765;DHT22;37835;53.256;6.456;2023-11-25T01:45:55;5.40;99.90
51765;DHT22;37835;53.256;6.456;2023-11-25T01:48:22;5.20;99.90
51765;DHT22;37835;53.256;6.456;2023-11-25T01:50:49;5.20;99.90
51765;DHT22;37835;53.256;6.456;2023-11-25T01:53:15;5.40;99.90
51765;DHT22;37835;53.256;6.456;2023-11-25T01:55:46;5.60;99.90
51765;DHT22;37835;53.256;6.456;2023-11-25T01:58:18;5.50;99.90
51765;DHT22;37835;53.256;6.456;2023-11-25T02:00:46;5.40;99.90
51765;DHT22;37835;53.256;6.456;2023-11-25T02:03:16;5.40;99.90
51765;DHT22;37835;53.256;6.456;2023-11-25T02:05:45;5.40;99.90
51765;DHT22;37835;53.256;6.456;2023-11-25T02:08:12;5.30;99.90
51765;DHT22;37835;53.256;6.456;2023-11-25T02:10:38;5.40;99.90
51765;DHT22;37835;53.256;6.456;2023-11-25T02:13:06;5.30;99.90
51765;DHT22;37835;53.256;6.456;2023-11-25T02:15:36;5.30;99.90
51765;DHT22;37835;53.256;6.456;2023-11-25T02:18:02;5.30;99.90
51765;DHT22;37835;53.256;6.456;2023-11-25T02:20:35;5.30;99.90
51765;DHT22;37835;53.256;6.456;2023-11-25T02:23:02;5.30;99.90
51765;DHT22;37835;53.256;6.456;2023-11-25T02:25:28;5.10;99.90
51765;DHT22;37835;53.256;6.456;2023-11-25T02:27:53;5.40;99.90
51765;DHT22;37835;53.256;6.456;2023-11-25T02:30:21;5.30;99.90
51765;DHT22;37835;53.256;6.456;2023-11-25T02:32:52;5.40;99.90
51765;DHT22;37835;53.256;6.456;2023-11-25T02:35:18;5.30;99.90
51765;DHT22;37835;53.256;6.456;2023-11-25T02:37:46;5.40;99.90
51765;DHT22;37835;53.256;6.456;2023-11-25T02:40:15;5.40;99.90
51765;DHT22;37835;53.256;6.456;2023-11-25T02:42:44;5.60;99.90
51765;DHT22;37835;53.256;6.456;2023-11-25T02:45:17;5.50;99.90
51765;DHT22;37835;53.256;6.456;2023-11-25T02:47:49;5.40;99.90
51765;DHT22;37835;53.256;6.456;2023-11-25T02:50:18;5.30;99.90
51765;DHT22;37835;53.256;6.456;2023-11-25T02:52:44;5.30;99.90
51765;DHT22;37835;53.256;6.456;2023-11-25T02:55:11;5.20;99.90
51765;DHT22;37835;53.256;6.456;2023-11-25T02:57:41;5.50;99.90
51765;DHT22;37835;53.256;6.456;2023-11-25T03:00:12;5.20;99.90
51765;DHT22;37835;53.256;6.456;2023-11-25T03:02:57;5.10;99.90
51765;DHT22;37835;53.256;6.456;2023-11-25T03:05:33;5.00;99.90
51765;DHT22;37835;53.256;6.456;2023-11-25T03:07:59;5.00;99.90
51765;DHT22;37835;53.256;6.456;2023-11-25T03:10:26;5.30;99.90
51765;DHT22;37835;53.256;6.456;2023-11-25T03:12:53;5.20;99.90
51765;DHT22;37835;53.256;6.456;2023-11-25T03:15:18;5.20;99.90
51765;DHT22;37835;53.256;6.456;2023-11-25T03:17:44;5.20;99.90
51765;DHT22;37835;53.256;6.456;2023-11-25T03:20:10;5.20;99.90
51765;DHT22;37835;53.256;6.456;2023-11-25T03:22:36;5.20;99.90
51765;DHT22;37835;53.256;6.456;2023-11-25T03:25:02;5.20;99.90
51765;DHT22;37835;53.256;6.456;2023-11-25T03:27:30;5.20;99.90
51765;DHT22;37835;53.256;6.456;2023-11-25T03:29:59;5.20;99.90
51765;DHT22;37835;53.256;6.456;2023-11-25T03:32:25;5.20;99.90
51765;DHT22;37835;53.256;6.456;2023-11-25T03:34:52;5.10;99.90
51765;DHT22;37835;53.256;6.456;2023-11-25T03:37:17;5.10;99.90
51765;DHT22;37835;53.256;6.456;2023-11-25T03:39:43;5.10;99.90
51765;DHT22;37835;53.256;6.456;2023-11-25T03:42:08;5.10;99.90
51765;DHT22;37835;53.256;6.456;2023-11-25T03:44:34;5.10;99.90
51765;DHT22;37835;53.256;6.456;2023-11-25T03:47:01;5.10;99.90
51765;DHT22;37835;53.256;6.456;2023-11-25T03:49:29;5.10;99.90
51765;DHT22;37835;53.256;6.456;2023-11-25T03:51:55;5.10;99.90
51765;DHT22;37835;53.256;6.456;2023-11-25T03:54:20;5.10;99.90
51765;DHT22;37835;53.256;6.456;2023-11-25T03:56:46;5.10;99.90
51765;DHT22;37835;53.256;6.456;2023-11-25T03:59:12;5.00;99.90
51765;DHT22;37835;53.256;6.456;2023-11-25T04:01:37;5.50;99.90
51765;DHT22;37835;53.256;6.456;2023-11-25T04:04:03;5.30;99.90
51765;DHT22;37835;53.256;6.456;2023-11-25T04:06:30;5.30;99.90
51765;DHT22;37835;53.256;6.456;2023-11-25T04:08:56;5.40;99.90
51765;DHT22;37835;53.256;6.456;2023-11-25T04:11:21;5.40;99.90
51765;DHT22;37835;53.256;6.456;2023-11-25T04:13:47;5.50;99.90
51765;DHT22;37835;53.256;6.456;2023-11-25T04:16:13;5.20;99.90
51765;DHT22;37835;53.256;6.456;2023-11-25T04:18:39;5.40;99.90
51765;DHT22;37835;53.256;6.456;2023-11-25T04:21:04;5.30;99.90
51765;DHT22;37835;53.256;6.456;2023-11-25T04:23:31;6.00;99.90
51765;DHT22;37835;53.256;6.456;2023-11-25T04:25:56;5.30;99.90
51765;DHT22;37835;53.256;6.456;2023-11-25T04:28:22;5.30;99.90
51765;DHT22;37835;53.256;6.456;2023-11-25T04:30:48;5.30;99.90
51765;DHT22;37835;53.256;6.456;2023-11-25T04:33:14;5.40;99.90
51765;DHT22;37835;53.256;6.456;2023-11-25T04:35:40;5.40;99.90
51765;DHT22;37835;53.256;6.456;2023-11-25T04:38:05;5.70;99.90
51765;DHT22;37835;53.256;6.456;2023-11-25T04:40:32;5.70;99.90
51765;DHT22;37835;53.256;6.456;2023-11-25T04:42:58;5.50;99.90
51765;DHT22;37835;53.256;6.456;2023-11-25T04:45:24;5.80;99.90
51765;DHT22;37835;53.256;6.456;2023-11-25T04:47:51;5.80;99.90
51765;DHT22;37835;53.256;6.456;2023-11-25T04:50:19;5.90;99.90
51765;DHT22;37835;53.256;6.456;2023-11-25T04:52:51;5.90;99.90
51765;DHT22;37835;53.256;6.456;2023-11-25T04:55:17;6.60;99.90
51765;DHT22;37835;53.256;6.456;2023-11-25T04:57:44;6.00;99.90
51765;DHT22;37835;53.256;6.456;2023-11-25T05:00:10;6.70;99.90
51765;DHT22;37835;53.256;6.456;2023-11-25T05:02:40;6.00;99.90
51765;DHT22;37835;53.256;6.456;2023-11-25T05:05:10;5.90;99.90
51765;DHT22;37835;53.256;6.456;2023-11-25T05:07:36;5.80;99.90
51765;DHT22;37835;53.256;6.456;2023-11-25T05:10:03;5.70;99.90
51765;DHT22;37835;53.256;6.456;2023-11-25T05:12:31;5.50;99.90
51765;DHT22;37835;53.256;6.456;2023-11-25T05:14:57;5.30;99.90
51765;DHT22;37835;53.256;6.456;2023-11-25T05:17:23;5.30;99.90
51765;DHT22;37835;53.256;6.456;2023-11-25T05:19:49;5.20;99.90
51765;DHT22;37835;53.256;6.456;2023-11-25T05:22:14;5.00;99.90
51765;DHT22;37835;53.256;6.456;2023-11-25T05:24:40;5.00;99.90
51765;DHT22;37835;53.256;6.456;2023-11-25T05:27:06;4.90;99.90
51765;DHT22;37835;53.256;6.456;2023-11-25T05:29:32;4.60;99.90
51765;DHT22;37835;53.256;6.456;2023-11-25T05:31:57;4.80;99.90
51765;DHT22;37835;53.256;6.456;2023-11-25T05:34:24;4.80;99.90
51765;DHT22;37835;53.256;6.456;2023-11-25T05:36:50;4.80;99.90
51765;DHT22;37835;53.256;6.456;2023-11-25T05:39:15;4.90;99.90
51765;DHT22;37835;53.256;6.456;2023-11-25T05:41:48;4.90;99.90
51765;DHT22;37835;53.256;6.456;2023-11-25T05:44:18;5.00;99.90
51765;DHT22;37835;53.256;6.456;2023-11-25T05:46:46;5.00;99.90
51765;DHT22;37835;53.256;6.456;2023-11-25T05:49:11;5.10;99.90
51765;DHT22;37835;53.256;6.456;2023-11-25T05:51:38;5.20;99.90
51765;DHT22;37835;53.256;6.456;2023-11-25T05:54:05;5.20;99.90
51765;DHT22;37835;53.256;6.456;2023-11-25T05:56:31;5.30;99.90
51765;DHT22;37835;53.256;6.456;2023-11-25T05:58:57;5.30;99.90
51765;DHT22;37835;53.256;6.456;2023-11-25T06:01:23;5.30;99.90
51765;DHT22;37835;53.256;6.456;2023-11-25T06:03:49;5.30;99.90
51765;DHT22;37835;53.256;6.456;2023-11-25T06:06:18;5.40;99.90
51765;DHT22;37835;53.256;6.456;2023-11-25T06:08:46;5.40;99.90
51765;DHT22;37835;53.256;6.456;2023-11-25T06:11:23;5.40;99.90
51765;DHT22;37835;53.256;6.456;2023-11-25T06:13:52;5.30;99.90
51765;DHT22;37835;53.256;6.456;2023-11-25T06:16:18;5.50;99.90
51765;DHT22;37835;53.256;6.456;2023-11-25T06:18:44;5.70;99.90
51765;DHT22;37835;53.256;6.456;2023-11-25T06:21:10;6.00;99.90
51765;DHT22;37835;53.256;6.456;2023-11-25T06:23:36;5.60;99.90
51765;DHT22;37835;53.256;6.456;2023-11-25T06:26:01;6.10;99.90
51765;DHT22;37835;53.256;6.456;2023-11-25T06:28:27;6.10;99.90
51765;DHT22;37835;53.256;6.456;2023-11-25T06:30:54;5.70;99.90
51765;DHT22;37835;53.256;6.456;2023-11-25T06:33:23;5.70;99.90
51765;DHT22;37835;53.256;6.456;2023-11-25T06:35:51;6.10;99.90
51765;DHT22;37835;53.256;6.456;2023-11-25T06:38:20;5.70;99.90
51765;DHT22;37835;53.256;6.456;2023-11-25T06:40:46;5.70;99.90
51765;DHT22;37835;53.256;6.456;2023-11-25T06:43:13;5.70;99.90
51765;DHT22;37835;53.256;6.456;2023-11-25T06:45:38;5.80;99.90
51765;DHT22;37835;53.256;6.456;2023-11-25T06:48:06;5.80;99.90
51765;DHT22;37835;53.256;6.456;2023-11-25T06:50:33;5.80;99.90
51765;DHT22;37835;53.256;6.456;2023-11-25T06:53:00;6.30;99.90
51765;DHT22;37835;53.256;6.456;2023-11-25T06:55:26;5.80;99.90
51765;DHT22;37835;53.256;6.456;2023-11-25T06:57:52;6.10;99.90
51765;DHT22;37835;53.256;6.456;2023-11-25T07:00:17;5.70;99.90
51765;DHT22;37835;53.256;6.456;2023-11-25T07:02:43;5.60;99.90
51765;DHT22;37835;53.256;6.456;2023-11-25T07:05:09;5.50;99.90
51765;DHT22;37835;53.256;6.456;2023-11-25T07:07:36;5.50;99.90
51765;DHT22;37835;53.256;6.456;2023-11-25T07:10:02;5.60;99.90
51765;DHT22;37835;53.256;6.456;2023-11-25T07:12:29;5.60;99.90
51765;DHT22;37835;53.256;6.456;2023-11-25T07:14:56;5.60;99.90
51765;DHT22;37835;53.256;6.456;2023-11-25T07:17:22;5.60;99.90
51765;DHT22;37835;53.256;6.456;2023-11-25T07:19:47;5.50;99.90
51765;DHT22;37835;53.256;6.456;2023-11-25T07:22:13;5.40;99.90
51765;DHT22;37835;53.256;6.456;2023-11-25T07:24:39;5.60;99.90
51765;DHT22;37835;53.256;6.456;2023-11-25T07:27:08;5.50;99.90
51765;DHT22;37835;53.256;6.456;2023-11-25T07:29:36;5.50;99.90
51765;DHT22;37835;53.256;6.456;2023-11-25T07:32:02;5.60;99.90
51765;DHT22;37835;53.256;6.456;2023-11-25T07:34:30;5.60;99.90
51765;DHT22;37835;53.256;6.456;2023-11-25T07:37:00;6.10;99.90
51765;DHT22;37835;53.256;6.456;2023-11-25T07:39:25;5.70;99.90
51765;DHT22;37835;53.256;6.456;2023-11-25T07:41:55;5.80;99.90
51765;DHT22;37835;53.256;6.456;2023-11-25T07:44:23;5.80;99.90
51765;DHT22;37835;53.256;6.456;2023-11-25T07:46:50;5.70;99.90
51765;DHT22;37835;53.256;6.456;2023-11-25T07:49:16;5.80;99.90
51765;DHT22;37835;53.256;6.456;2023-11-25T07:51:42;5.80;99.90
51765;DHT22;37835;53.256;6.456;2023-11-25T07:54:07;5.80;99.90
51765;DHT22;37835;53.256;6.456;2023-11-25T07:56:36;5.80;99.90
51765;DHT22;37835;53.256;6.456;2023-11-25T07:59:03;5.80;99.90
51765;DHT22;37835;53.256;6.456;2023-11-25T08:01:29;5.80;99.90
51765;DHT22;37835;53.256;6.456;2023-11-25T08:03:55;5.80;99.90
51765;DHT22;37835;53.256;6.456;2023-11-25T08:06:22;5.90;99.90
51765;DHT22;37835;53.256;6.456;2023-11-25T08:08:54;6.00;99.90
51765;DHT22;37835;53.256;6.456;2023-11-25T08:11:27;6.10;99.90
51765;DHT22;37835;53.256;6.456;2023-11-25T08:13:53;6.00;99.90
51765;DHT22;37835;53.256;6.456;2023-11-25T08:16:19;6.10;99.90
51765;DHT22;37835;53.256;6.456;2023-11-25T08:18:45;5.90;99.90
51765;DHT22;37835;53.256;6.456;2023-11-25T08:21:12;6.10;99.90
51765;DHT22;37835;53.256;6.456;2023-11-25T08:23:39;6.10;99.90
51765;DHT22;37835;53.256;6.456;2023-11-25T08:26:25;6.00;99.90
51765;DHT22;37835;53.256;6.456;2023-11-25T08:28:52;5.90;99.90
51765;DHT22;37835;53.256;6.456;2023-11-25T08:31:19;5.30;99.90
51765;DHT22;37835;53.256;6.456;2023-11-25T08:33:45;5.90;99.90
51765;DHT22;37835;53.256;6.456;2023-11-25T08:36:12;6.40;99.90
51765;DHT22;37835;53.256;6.456;2023-11-25T08:38:39;5.90;99.90
51765;DHT22;37835;53.256;6.456;2023-11-25T08:41:05;5.80;99.90
51765;DHT22;37835;53.256;6.456;2023-11-25T08:43:42;5.80;99.90
51765;DHT22;37835;53.256;6.456;2023-11-25T08:46:14;5.80;99.90
51765;DHT22;37835;53.256;6.456;2023-11-25T08:48:45;5.80;99.90
51765;DHT22;37835;53.256;6.456;2023-11-25T08:51:11;5.80;99.90
51765;DHT22;37835;53.256;6.456;2023-11-25T08:53:37;6.40;99.90
51765;DHT22;37835;53.256;6.456;2023-11-25T08:56:03;6.00;99.90
51765;DHT22;37835;53.256;6.456;2023-11-25T08:58:30;5.90;99.90
51765;DHT22;37835;53.256;6.456;2023-11-25T09:00:56;6.00;99.90
51765;DHT22;37835;53.256;6.456;2023-11-25T09:03:22;6.00;99.90
51765;DHT22;37835;53.256;6.456;2023-11-25T09:05:50;8.10;99.90
51765;DHT22;37835;53.256;6.456;2023-11-25T09:08:16;6.30;99.90
51765;DHT22;37835;53.256;6.456;2023-11-25T09:10:42;6.50;99.90
51765;DHT22;37835;53.256;6.456;2023-11-25T09:13:08;6.40;99.90
51765;DHT22;37835;53.256;6.456;2023-11-25T09:15:34;6.20;99.90
51765;DHT22;37835;53.256;6.456;2023-11-25T09:18:00;6.60;99.90
51765;DHT22;37835;53.256;6.456;2023-11-25T09:20:27;6.60;99.90
51765;DHT22;37835;53.256;6.456;2023-11-25T09:22:55;6.30;99.90
51765;DHT22;37835;53.256;6.456;2023-11-25T09:25:21;6.30;99.90
51765;DHT22;37835;53.256;6.456;2023-11-25T09:27:50;6.30;99.90
51765;DHT22;37835;53.256;6.456;2023-11-25T09:30:17;6.40;99.90
51765;DHT22;37835;53.256;6.456;2023-11-25T09:32:44;6.30;99.90
51765;DHT22;37835;53.256;6.456;2023-11-25T09:35:12;6.40;99.90
51765;DHT22;37835;53.256;6.456;2023-11-25T09:37:39;6.30;99.90
51765;DHT22;37835;53.256;6.456;2023-11-25T09:40:09;6.40;99.90
51765;DHT22;37835;53.256;6.456;2023-11-25T09:42:41;6.30;99.90
51765;DHT22;37835;53.256;6.456;2023-11-25T09:45:10;6.30;99.90
51765;DHT22;37835;53.256;6.456;2023-11-25T09:47:41;6.30;99.90
51765;DHT22;37835;53.256;6.456;2023-11-25T09:50:09;6.40;99.90
51765;DHT22;37835;53.256;6.456;2023-11-25T09:52:43;6.80;99.90
51765;DHT22;37835;53.256;6.456;2023-11-25T09:55:12;6.60;99.90
51765;DHT22;37835;53.256;6.456;2023-11-25T09:57:40;6.70;99.90
51765;DHT22;37835;53.256;6.456;2023-11-25T10:00:09;6.70;99.90
51765;DHT22;37835;53.256;6.456;2023-11-25T10:02:38;6.90;99.90
51765;DHT22;37835;53.256;6.456;2023-11-25T10:05:05;6.90;99.90
51765;DHT22;37835;53.256;6.456;2023-11-25T10:07:31;6.90;99.90
51765;DHT22;37835;53.256;6.456;2023-11-25T10:09:57;6.90;99.90
51765;DHT22;37835;53.256;6.456;2023-11-25T10:12:23;6.90;99.90
51765;DHT22;37835;53.256;6.456;2023-11-25T10:14:51;6.90;99.90
51765;DHT22;37835;53.256;6.456;2023-11-25T10:17:21;7.00;99.90
51765;DHT22;37835;53.256;6.456;2023-11-25T10:19:48;7.10;99.90
51765;DHT22;37835;53.256;6.456;2023-11-25T10:22:18;6.90;99.90
51765;DHT22;37835;53.256;6.456;2023-11-25T10:24:52;7.10;99.90
51765;DHT22;37835;53.256;6.456;2023-11-25T10:27:21;7.40;99.90
51765;DHT22;37835;53.256;6.456;2023-11-25T10:29:47;7.30;99.90
51765;DHT22;37835;53.256;6.456;2023-11-25T10:32:15;7.40;99.90
51765;DHT22;37835;53.256;6.456;2023-11-25T10:34:41;7.60;99.90
51765;DHT22;37835;53.256;6.456;2023-11-25T10:37:08;7.50;99.90
51765;DHT22;37835;53.256;6.456;2023-11-25T10:39:35;7.70;99.90
51765;DHT22;37835;53.256;6.456;2023-11-25T10:42:04;8.20;99.90
51765;DHT22;37835;53.256;6.456;2023-11-25T10:44:38;7.80;99.90
51765;DHT22;37835;53.256;6.456;2023-11-25T10:47:06;7.80;99.90
51765;DHT22;37835;53.256;6.456;2023-11-25T10:49:33;7.80;99.90
51765;DHT22;37835;53.256;6.456;2023-11-25T10:52:03;8.00;99.90
51765;DHT22;37835;53.256;6.456;2023-11-25T10:54:33;7.80;99.90
51765;DHT22;37835;53.256;6.456;2023-11-25T10:57:01;7.80;99.90
51765;DHT22;37835;53.256;6.456;2023-11-25T10:59:34;7.80;99.90
51765;DHT22;37835;53.256;6.456;2023-11-25T11:02:03;7.80;99.90
51765;DHT22;37835;53.256;6.456;2023-11-25T11:04:45;7.80;99.90
51765;DHT22;37835;53.256;6.456;2023-11-25T11:07:15;7.90;99.90
51765;DHT22;37835;53.256;6.456;2023-11-25T11:09:55;7.90;99.90
51765;DHT22;37835;53.256;6.456;2023-11-25T11:12:42;7.90;99.90
51765;DHT22;37835;53.256;6.456;2023-11-25T11:15:14;7.90;99.90
51765;DHT22;37835;53.256;6.456;2023-11-25T11:18:08;7.90;99.90
51765;DHT22;37835;53.256;6.456;2023-11-25T11:20:46;7.90;99.90
51765;DHT22;37835;53.256;6.456;2023-11-25T11:23:17;7.80;99.90
51765;DHT22;37835;53.256;6.456;2023-11-25T11:25:49;7.90;99.90
51765;DHT22;37835;53.256;6.456;2023-11-25T11:33:54;7.80;99.90
51765;DHT22;37835;53.256;6.456;2023-11-25T11:36:21;7.90;99.90
51765;DHT22;37835;53.256;6.456;2023-11-25T11:38:47;8.00;99.90
51765;DHT22;37835;53.256;6.456;2023-11-25T11:43:41;8.10;99.90
51765;DHT22;37835;53.256;6.456;2023-11-25T11:46:07;8.10;99.90
51765;DHT22;37835;53.256;6.456;2023-11-25T11:48:33;8.50;99.90
51765;DHT22;37835;53.256;6.456;2023-11-25T11:50:59;8.20;99.90
51765;DHT22;37835;53.256;6.456;2023-11-25T11:53:25;8.20;99.90
51765;DHT22;37835;53.256;6.456;2023-11-25T11:55:57;8.60;99.90
51765;DHT22;37835;53.256;6.456;2023-11-25T11:58:24;8.10;99.90
51765;DHT22;37835;53.256;6.456;2023-11-25T12:03:31;8.00;99.90
51765;DHT22;37835;53.256;6.456;2023-11-25T12:05:57;7.90;99.90
51765;DHT22;37835;53.256;6.456;2023-11-25T12:08:23;7.80;99.90
51765;DHT22;37835;53.256;6.456;2023-11-25T12:10:50;8.10;99.90
51765;DHT22;37835;53.256;6.456;2023-11-25T12:15:57;7.90;99.90
51765;DHT22;37835;53.256;6.456;2023-11-25T12:18:30;7.50;99.90
51765;DHT22;37835;53.256;6.456;2023-11-25T12:20:57;7.60;99.90
51765;DHT22;37835;53.256;6.456;2023-11-25T12:23:26;7.50;99.90
51765;DHT22;37835;53.256;6.456;2023-11-25T12:25:53;7.50;99.90
51765;DHT22;37835;53.256;6.456;2023-11-25T12:28:20;7.40;99.90
51765;DHT22;37835;53.256;6.456;2023-11-25T12:30:47;7.40;99.90
51765;DHT22;37835;53.256;6.456;2023-11-25T12:33:12;7.60;99.90
51765;DHT22;37835;53.256;6.456;2023-11-25T12:35:40;7.50;99.90
51765;DHT22;37835;53.256;6.456;2023-11-25T12:38:06;7.50;99.90
51765;DHT22;37835;53.256;6.456;2023-11-25T12:40:37;7.40;99.90
51765;DHT22;37835;53.256;6.456;2023-11-25T12:43:07;7.50;99.90
51765;DHT22;37835;53.256;6.456;2023-11-25T12:45:38;7.50;99.90
51765;DHT22;37835;53.256;6.456;2023-11-25T12:48:07;7.50;99.90
51765;DHT22;37835;53.256;6.456;2023-11-25T12:50:56;7.60;99.90
51765;DHT22;37835;53.256;6.456;2023-11-25T12:53:20;7.60;99.90
51765;DHT22;37835;53.256;6.456;2023-11-25T12:55:46;7.60;99.90
51765;DHT22;37835;53.256;6.456;2023-11-25T12:58:24;7.60;99.90
51765;DHT22;37835;53.256;6.456;2023-11-25T13:00:55;7.70;99.90
51765;DHT22;37835;53.256;6.456;2023-11-25T13:03:28;7.70;99.90
51765;DHT22;37835;53.256;6.456;2023-11-25T13:06:04;7.70;99.90
51765;DHT22;37835;53.256;6.456;2023-11-25T13:08:32;7.70;99.90
51765;DHT22;37835;53.256;6.456;2023-11-25T13:11:03;7.70;99.90
51765;DHT22;37835;53.256;6.456;2023-11-25T13:13:30;7.70;99.90
51765;DHT22;37835;53.256;6.456;2023-11-25T13:16:00;7.70;99.90
51765;DHT22;37835;53.256;6.456;2023-11-25T13:18:27;7.70;99.90
51765;DHT22;37835;53.256;6.456;2023-11-25T13:20:54;7.70;99.90
51765;DHT22;37835;53.256;6.456;2023-11-25T13:23:21;7.70;99.90
51765;DHT22;37835;53.256;6.456;2023-11-25T13:25:47;7.80;99.90
51765;DHT22;37835;53.256;6.456;2023-11-25T13:28:13;7.70;99.90
51765;DHT22;37835;53.256;6.456;2023-11-25T13:30:40;7.50;99.90
51765;DHT22;37835;53.256;6.456;2023-11-25T13:33:06;7.50;99.90
51765;DHT22;37835;53.256;6.456;2023-11-25T13:35:32;7.40;99.90
51765;DHT22;37835;53.256;6.456;2023-11-25T13:38:00;7.30;99.90
51765;DHT22;37835;53.256;6.456;2023-11-25T13:40:26;7.20;99.90
51765;DHT22;37835;53.256;6.456;2023-11-25T13:43:03;7.10;99.90
51765;DHT22;37835;53.256;6.456;2023-11-25T13:45:30;7.00;99.90
51765;DHT22;37835;53.256;6.456;2023-11-25T13:47:57;7.00;99.90
51765;DHT22;37835;53.256;6.456;2023-11-25T13:50:27;7.00;99.90
51765;DHT22;37835;53.256;6.456;2023-11-25T13:52:53;6.70;99.90
51765;DHT22;37835;53.256;6.456;2023-11-25T13:55:19;6.60;99.90
51765;DHT22;37835;53.256;6.456;2023-11-25T13:57:47;6.60;99.90
51765;DHT22;37835;53.256;6.456;2023-11-25T14:00:13;6.50;99.90
51765;DHT22;37835;53.256;6.456;2023-11-25T14:02:41;6.40;99.90
51765;DHT22;37835;53.256;6.456;2023-11-25T14:05:07;6.30;99.90
51765;DHT22;37835;53.256;6.456;2023-11-25T14:07:37;6.30;99.90
51765;DHT22;37835;53.256;6.456;2023-11-25T14:10:05;6.30;99.90
51765;DHT22;37835;53.256;6.456;2023-11-25T14:12:34;6.20;99.90
51765;DHT22;37835;53.256;6.456;2023-11-25T14:15:01;6.20;99.90
51765;DHT22;37835;53.256;6.456;2023-11-25T14:17:28;6.30;99.90
51765;DHT22;37835;53.256;6.456;2023-11-25T14:19:55;6.10;99.90
51765;DHT22;37835;53.256;6.456;2023-11-25T14:22:21;6.10;99.90
51765;DHT22;37835;53.256;6.456;2023-11-25T14:24:46;6.20;99.90
51765;DHT22;37835;53.256;6.456;2023-11-25T14:27:12;6.00;99.90
51765;DHT22;37835;53.256;6.456;2023-11-25T14:29:38;6.00;99.90
51765;DHT22;37835;53.256;6.456;2023-11-25T14:32:04;6.00;99.90
51765;DHT22;37835;53.256;6.456;2023-11-25T14:34:30;5.90;99.90
51765;DHT22;37835;53.256;6.456;2023-11-25T14:36:56;5.90;99.90
51765;DHT22;37835;53.256;6.456;2023-11-25T14:39:22;5.80;99.90
51765;DHT22;37835;53.256;6.456;2023-11-25T14:42:07;5.80;99.90
51765;DHT22;37835;53.256;6.456;2023-11-25T14:44:34;5.70;99.90
51765;DHT22;37835;53.256;6.456;2023-11-25T14:47:00;5.70;99.90
51765;DHT22;37835;53.256;6.456;2023-11-25T14:49:25;5.60;99.90
51765;DHT22;37835;53.256;6.456;2023-11-25T14:51:51;5.60;99.90
51765;DHT22;37835;53.256;6.456;2023-11-25T14:54:20;5.60;99.90
51765;DHT22;37835;53.256;6.456;2023-11-25T14:56:46;5.60;99.90
51765;DHT22;37835;53.256;6.456;2023-11-25T14:59:16;5.90;99.90
51765;DHT22;37835;53.256;6.456;2023-11-25T15:01:42;5.40;99.90
51765;DHT22;37835;53.256;6.456;2023-11-25T15:04:08;5.40;99.90
51765;DHT22;37835;53.256;6.456;2023-11-25T15:06:37;5.40;99.90
51765;DHT22;37835;53.256;6.456;2023-11-25T15:09:03;5.30;99.90
51765;DHT22;37835;53.256;6.456;2023-11-25T15:11:28;5.30;99.90
51765;DHT22;37835;53.256;6.456;2023-11-25T15:13:54;5.20;99.90
51765;DHT22;37835;53.256;6.456;2023-11-25T15:16:21;5.20;99.90
51765;DHT22;37835;53.256;6.456;2023-11-25T15:18:47;5.10;99.90
51765;DHT22;37835;53.256;6.456;2023-11-25T15:21:16;5.70;99.90
51765;DHT22;37835;53.256;6.456;2023-11-25T15:23:43;5.00;99.90
51765;DHT22;37835;53.256;6.456;2023-11-25T15:26:10;4.90;99.90
51765;DHT22;37835;53.256;6.456;2023-11-25T15:28:40;4.90;99.90
51765;DHT22;37835;53.256;6.456;2023-11-25T15:31:13;5.20;99.90
51765;DHT22;37835;53.256;6.456;2023-11-25T15:33:40;4.90;99.90
51765;DHT22;37835;53.256;6.456;2023-11-25T15:36:11;4.80;99.90
51765;DHT22;37835;53.256;6.456;2023-11-25T15:38:37;4.80;99.90
51765;DHT22;37835;53.256;6.456;2023-11-25T15:41:03;5.30;99.90
51765;DHT22;37835;53.256;6.456;2023-11-25T15:43:33;4.70;99.90
51765;DHT22;37835;53.256;6.456;2023-11-25T15:46:00;4.60;99.90
51765;DHT22;37835;53.256;6.456;2023-11-25T15:48:28;4.60;99.90
51765;DHT22;37835;53.256;6.456;2023-11-25T15:50:54;4.60;99.90
51765;DHT22;37835;53.256;6.456;2023-11-25T15:53:23;4.50;99.90
51765;DHT22;37835;53.256;6.456;2023-11-25T15:55:48;4.50;99.90
51765;DHT22;37835;53.256;6.456;2023-11-25T15:58:14;4.50;99.90
51765;DHT22;37835;53.256;6.456;2023-11-25T16:00:44;4.50;99.90